createdAt,value
2022-12-02T00:00:41.708Z,15
2022-12-02T00:01:41.695Z,16
2022-12-02T00:02:41.708Z,17
2022-12-02T00:03:41.709Z,15
2022-12-02T00:04:41.708Z,17
2022-12-02T00:05:41.696Z,16
2022-12-02T00:06:41.709Z,15
2022-12-02T00:07:41.710Z,17
2022-12-02T00:08:41.696Z,13
2022-12-02T00:09:41.696Z,17
2022-12-02T00:10:41.709Z,18
2022-12-02T00:11:41.710Z,20
2022-12-02T00:12:41.697Z,20
2022-12-02T00:13:41.697Z,19
2022-12-02T00:14:41.710Z,20
2022-12-02T00:15:41.710Z,14
2022-12-02T00:17:41.711Z,15
2022-12-02T00:18:41.711Z,14
2022-12-02T00:19:41.711Z,12
2022-12-02T00:20:41.698Z,13
2022-12-02T00:21:41.711Z,15
2022-12-02T00:22:41.712Z,21
2022-12-02T00:23:41.711Z,14
2022-12-02T00:24:41.698Z,14
2022-12-02T00:25:41.712Z,15
2022-12-02T00:26:41.712Z,11
2022-12-02T00:27:41.699Z,10
2022-12-02T00:28:41.699Z,11
2022-12-02T00:29:41.712Z,11
2022-12-02T00:30:41.713Z,12
2022-12-02T00:31:41.700Z,11
2022-12-02T00:32:41.753Z,13
2022-12-02T00:33:41.713Z,12
2022-12-02T00:35:41.700Z,10
2022-12-02T00:36:41.713Z,6
2022-12-02T00:37:41.714Z,8
2022-12-02T00:38:41.714Z,8
2022-12-02T00:39:41.701Z,8
2022-12-02T00:40:41.714Z,6
2022-12-02T00:41:41.715Z,8
2022-12-02T00:42:41.714Z,7
2022-12-02T00:43:41.701Z,8
2022-12-02T00:44:41.715Z,10
2022-12-02T00:45:41.715Z,11
2022-12-02T00:46:41.727Z,10
2022-12-02T00:47:41.702Z,11
2022-12-02T00:48:41.715Z,10
2022-12-02T00:49:41.716Z,12
2022-12-02T00:50:41.702Z,12
2022-12-02T00:51:41.703Z,13
2022-12-02T00:52:41.716Z,12
2022-12-02T00:53:41.716Z,17
2022-12-02T00:54:41.703Z,16
2022-12-02T00:55:41.716Z,14
2022-12-02T00:56:41.716Z,14
2022-12-02T00:57:41.716Z,14
2022-12-02T00:58:41.704Z,16
2022-12-02T00:59:41.717Z,17
2022-12-02T01:00:41.759Z,14
2022-12-02T01:01:41.717Z,15
2022-12-02T01:02:41.704Z,14
2022-12-02T01:03:41.717Z,16
2022-12-02T01:04:41.718Z,15
2022-12-02T01:05:41.718Z,16
2022-12-02T01:06:41.705Z,15
2022-12-02T01:07:41.718Z,23
2022-12-02T01:08:41.719Z,24
2022-12-02T01:09:41.705Z,14
2022-12-02T01:10:41.705Z,14
2022-12-02T01:11:41.718Z,14
2022-12-02T01:12:41.719Z,17
2022-12-02T01:13:41.706Z,15
2022-12-02T01:14:41.719Z,15
2022-12-02T01:15:41.719Z,18
2022-12-02T01:16:41.719Z,15
2022-12-02T01:17:41.706Z,15
2022-12-02T01:18:41.720Z,16
2022-12-02T01:19:41.720Z,16
2022-12-02T01:20:41.720Z,16
2022-12-02T01:21:41.707Z,15
2022-12-02T01:22:41.720Z,15
2022-12-02T01:23:41.721Z,14
2022-12-02T01:24:41.733Z,15
2022-12-02T01:25:41.708Z,16
2022-12-02T01:26:41.721Z,15
2022-12-02T01:27:41.721Z,16
2022-12-02T01:28:41.708Z,14
2022-12-02T01:29:41.708Z,14
2022-12-02T01:30:41.721Z,15
2022-12-02T01:31:41.721Z,14
2022-12-02T01:32:41.709Z,12
2022-12-02T01:33:41.722Z,15
2022-12-02T01:34:41.722Z,16
2022-12-02T01:35:41.722Z,14
2022-12-02T01:36:41.722Z,14
2022-12-02T01:37:41.722Z,17
2022-12-02T01:38:41.723Z,14
2022-12-02T01:39:41.723Z,14
2022-12-02T01:40:41.710Z,14
2022-12-02T01:41:41.723Z,14
2022-12-02T01:42:41.724Z,19
2022-12-02T01:43:41.710Z,17
2022-12-02T01:44:41.710Z,16
2022-12-02T01:45:41.724Z,17
2022-12-02T01:46:41.724Z,14
2022-12-02T01:47:41.711Z,18
2022-12-02T01:48:41.711Z,17
2022-12-02T01:49:41.724Z,19
2022-12-02T01:50:41.725Z,15
2022-12-02T01:51:41.711Z,15
2022-12-02T01:52:41.725Z,16
2022-12-02T01:53:41.725Z,16
2022-12-02T01:54:41.725Z,16
2022-12-02T01:55:41.712Z,16
2022-12-02T01:56:41.725Z,15
2022-12-02T01:57:41.726Z,16
2022-12-02T01:58:41.726Z,16
2022-12-02T01:59:41.713Z,16
2022-12-02T02:00:41.726Z,17
2022-12-02T02:01:41.726Z,18
2022-12-02T02:02:41.738Z,18
2022-12-02T02:03:41.713Z,16
2022-12-02T02:04:41.726Z,19
2022-12-02T02:05:41.727Z,20
2022-12-02T02:06:41.714Z,19
2022-12-02T02:07:41.714Z,17
2022-12-02T02:08:41.727Z,18
2022-12-02T02:09:41.727Z,18
2022-12-02T02:10:41.714Z,20
2022-12-02T02:11:41.727Z,22
2022-12-02T02:12:41.728Z,17
2022-12-02T02:13:41.728Z,19
2022-12-02T02:14:41.715Z,19
2022-12-02T02:15:41.728Z,20
2022-12-02T02:16:41.729Z,18
2022-12-02T02:17:41.728Z,17
2022-12-02T02:18:41.715Z,19
2022-12-02T02:19:41.729Z,17
2022-12-02T02:20:41.730Z,19
2022-12-02T02:21:41.716Z,19
2022-12-02T02:22:41.716Z,18
2022-12-02T02:23:41.729Z,19
2022-12-02T02:24:41.730Z,18
2022-12-02T02:25:41.716Z,18
2022-12-02T02:26:41.794Z,17
2022-12-02T02:27:41.730Z,16
2022-12-02T02:28:41.730Z,19
2022-12-02T02:29:41.717Z,17
2022-12-02T02:30:41.730Z,19
2022-12-02T02:31:41.730Z,19
2022-12-02T02:32:41.730Z,18
2022-12-02T02:33:41.718Z,18
2022-12-02T02:34:41.731Z,17
2022-12-02T02:35:41.731Z,15
2022-12-02T02:36:41.731Z,17
2022-12-02T02:37:41.718Z,15
2022-12-02T02:38:41.731Z,16
2022-12-02T02:39:41.732Z,15
2022-12-02T02:40:41.719Z,14
2022-12-02T02:41:41.719Z,16
2022-12-02T02:42:41.732Z,14
2022-12-02T02:43:41.733Z,16
2022-12-02T02:44:41.719Z,15
2022-12-02T02:45:41.719Z,14
2022-12-02T02:46:41.732Z,14
2022-12-02T02:47:41.757Z,13
2022-12-02T02:48:41.720Z,11
2022-12-02T02:49:41.733Z,11
2022-12-02T02:50:41.733Z,12
2022-12-02T02:51:41.733Z,10
2022-12-02T02:52:41.720Z,9
2022-12-02T02:53:41.733Z,11
2022-12-02T02:54:41.734Z,10
2022-12-02T02:55:41.734Z,10
2022-12-02T02:56:41.721Z,11
2022-12-02T02:57:41.734Z,10
2022-12-02T02:58:41.735Z,10
2022-12-02T02:59:41.721Z,9
2022-12-02T03:00:41.721Z,11
2022-12-02T03:01:41.735Z,9
2022-12-02T03:02:41.735Z,10
2022-12-02T03:03:41.722Z,12
2022-12-02T03:04:41.722Z,12
2022-12-02T03:05:41.735Z,12
2022-12-02T03:06:41.735Z,11
2022-12-02T03:07:41.722Z,11
2022-12-02T03:08:41.736Z,14
2022-12-02T03:09:41.736Z,15
2022-12-02T03:10:41.736Z,14
2022-12-02T03:11:41.723Z,14
2022-12-02T03:12:41.736Z,13
2022-12-02T03:13:41.737Z,13
2022-12-02T03:14:41.736Z,13
2022-12-02T03:15:41.724Z,14
2022-12-02T03:16:41.737Z,13
2022-12-02T03:17:41.737Z,14
2022-12-02T03:18:41.724Z,15
2022-12-02T03:19:41.724Z,15
2022-12-02T03:20:41.737Z,15
2022-12-02T03:21:41.738Z,14
2022-12-02T03:22:41.725Z,13
2022-12-02T03:23:41.802Z,13
2022-12-02T03:24:41.738Z,15
2022-12-02T03:25:41.738Z,13
2022-12-02T03:26:41.725Z,17
2022-12-02T03:27:41.738Z,14
2022-12-02T03:28:41.739Z,16
2022-12-02T03:29:41.739Z,16
2022-12-02T03:30:41.726Z,17
2022-12-02T03:31:41.739Z,17
2022-12-02T03:32:41.740Z,14
2022-12-02T03:33:41.739Z,15
2022-12-02T03:34:41.726Z,18
2022-12-02T03:35:41.764Z,16
2022-12-02T03:36:41.740Z,15
2022-12-02T03:37:41.727Z,16
2022-12-02T03:38:41.727Z,15
2022-12-02T03:39:41.740Z,15
2022-12-02T03:40:41.741Z,17
2022-12-02T03:41:41.727Z,14
2022-12-02T03:42:41.741Z,14
2022-12-02T03:43:41.741Z,14
2022-12-02T03:44:41.741Z,15
2022-12-02T03:45:41.728Z,12
2022-12-02T03:46:41.741Z,11
2022-12-02T03:47:41.741Z,10
2022-12-02T03:48:41.741Z,12
2022-12-02T03:49:41.729Z,12
2022-12-02T03:50:41.742Z,12
2022-12-02T03:51:41.742Z,15
2022-12-02T03:52:41.742Z,12
2022-12-02T03:53:41.729Z,10
2022-12-02T03:54:41.743Z,11
2022-12-02T03:55:41.743Z,12
2022-12-02T03:56:41.730Z,12
2022-12-02T03:57:41.730Z,13
2022-12-02T03:58:41.743Z,11
2022-12-02T03:59:41.744Z,11
2022-12-02T04:00:41.730Z,12
2022-12-02T04:01:41.808Z,12
2022-12-02T04:02:41.743Z,10
2022-12-02T04:03:41.744Z,10
2022-12-02T04:04:41.731Z,12
2022-12-02T04:05:41.744Z,10
2022-12-02T04:06:41.744Z,9
2022-12-02T04:07:41.744Z,9
2022-12-02T04:08:41.731Z,9
2022-12-02T04:09:41.744Z,10
2022-12-02T04:10:41.745Z,10
2022-12-02T04:11:41.745Z,10
2022-12-02T04:12:41.732Z,13
2022-12-02T04:13:41.745Z,10
2022-12-02T04:14:41.746Z,11
2022-12-02T04:15:41.732Z,10
2022-12-02T04:16:41.732Z,11
2022-12-02T04:17:41.746Z,11
2022-12-02T04:18:41.746Z,10
2022-12-02T04:19:41.733Z,10
2022-12-02T04:20:41.771Z,9
2022-12-02T04:21:41.746Z,11
2022-12-02T04:22:41.746Z,11
2022-12-02T04:23:41.733Z,11
2022-12-02T04:24:41.747Z,9
2022-12-02T04:25:41.747Z,7
2022-12-02T04:26:41.747Z,8
2022-12-02T04:27:41.734Z,8
2022-12-02T04:28:41.747Z,10
2022-12-02T04:29:41.748Z,8
2022-12-02T04:30:41.747Z,9
2022-12-02T04:31:41.735Z,10
2022-12-02T04:32:41.748Z,11
2022-12-02T04:33:41.748Z,10
2022-12-02T04:34:41.735Z,11
2022-12-02T04:35:41.735Z,12
2022-12-02T04:36:41.748Z,11
2022-12-02T04:37:41.749Z,13
2022-12-02T04:38:41.736Z,14
2022-12-02T04:39:41.749Z,17
2022-12-02T04:40:41.749Z,17
2022-12-02T04:41:41.749Z,16
2022-12-02T04:42:41.736Z,15
2022-12-02T04:43:41.749Z,15
2022-12-02T04:44:41.750Z,16
2022-12-02T04:45:41.750Z,17
2022-12-02T04:46:41.737Z,15
2022-12-02T04:47:41.750Z,17
2022-12-02T04:48:41.751Z,15
2022-12-02T04:49:41.750Z,15
2022-12-02T04:50:41.737Z,16
2022-12-02T04:51:41.759Z,14
2022-12-02T04:52:41.751Z,15
2022-12-02T04:53:41.738Z,17
2022-12-02T04:54:41.738Z,16
2022-12-02T04:55:41.751Z,14
2022-12-02T04:56:41.752Z,15
2022-12-02T04:57:41.738Z,17
2022-12-02T04:58:41.751Z,17
2022-12-02T04:59:41.752Z,14
2022-12-02T05:00:41.752Z,16
2022-12-02T05:01:41.739Z,15
2022-12-02T05:02:41.752Z,16
2022-12-02T05:03:41.803Z,17
2022-12-02T05:04:41.752Z,18
2022-12-02T05:05:41.739Z,18
2022-12-02T05:06:41.753Z,17
2022-12-02T05:07:41.753Z,16
2022-12-02T05:08:41.753Z,18
2022-12-02T05:09:41.740Z,20
2022-12-02T05:10:41.753Z,18
2022-12-02T05:11:41.754Z,15
2022-12-02T05:12:41.740Z,17
2022-12-02T05:13:41.741Z,17
2022-12-02T05:14:41.754Z,16
2022-12-02T05:15:41.755Z,17
2022-12-02T05:16:41.741Z,17
2022-12-02T05:17:41.754Z,14
2022-12-02T05:19:41.754Z,14
2022-12-02T05:20:41.742Z,16
2022-12-02T05:21:41.755Z,14
2022-12-02T05:22:41.755Z,13
2022-12-02T05:23:41.755Z,13
2022-12-02T05:24:41.742Z,14
2022-12-02T05:25:41.756Z,15
2022-12-02T05:26:41.756Z,19
2022-12-02T05:27:41.743Z,12
2022-12-02T05:28:41.743Z,12
2022-12-02T05:29:41.756Z,13
2022-12-02T05:30:41.757Z,19
2022-12-02T05:31:41.743Z,17
2022-12-02T05:32:41.743Z,18
2022-12-02T05:33:41.757Z,19
2022-12-02T05:34:41.757Z,19
2022-12-02T05:35:41.744Z,19
2022-12-02T05:36:41.757Z,20
2022-12-02T05:37:41.757Z,16
2022-12-02T05:38:41.757Z,18
2022-12-02T05:39:41.757Z,17
2022-12-02T05:40:41.758Z,15
2022-12-02T05:42:41.758Z,16
2022-12-02T05:43:41.745Z,15
2022-12-02T05:44:41.758Z,20
2022-12-02T05:45:41.759Z,17
2022-12-02T05:46:41.758Z,15
2022-12-02T05:47:41.745Z,17
2022-12-02T05:48:41.759Z,26
2022-12-02T05:49:41.759Z,21
2022-12-02T05:50:41.746Z,19
2022-12-02T05:52:41.759Z,19
2022-12-02T05:53:41.760Z,16
2022-12-02T05:54:41.746Z,17
2022-12-02T05:55:41.760Z,19
2022-12-02T05:56:41.760Z,18
2022-12-02T05:57:41.760Z,16
2022-12-02T05:58:41.747Z,16
2022-12-02T05:59:41.760Z,14
2022-12-02T06:00:41.761Z,13
2022-12-02T06:01:41.760Z,16
2022-12-02T06:02:41.748Z,16
2022-12-02T06:03:41.761Z,17
2022-12-02T06:04:41.761Z,20
2022-12-02T06:05:41.769Z,14
2022-12-02T06:06:41.748Z,17
2022-12-02T06:07:41.761Z,18
2022-12-02T06:08:41.762Z,19
2022-12-02T06:09:41.749Z,26
2022-12-02T06:10:41.749Z,23
2022-12-02T06:11:41.762Z,19
2022-12-02T06:12:41.762Z,15
2022-12-02T06:13:41.749Z,15
2022-12-02T06:14:41.762Z,16
2022-12-02T06:15:41.762Z,16
2022-12-02T06:16:41.762Z,13
2022-12-02T06:17:41.750Z,17
2022-12-02T06:18:41.763Z,25
2022-12-02T06:19:41.763Z,21
2022-12-02T06:20:41.763Z,21
2022-12-02T06:21:41.750Z,22
2022-12-02T06:22:41.763Z,23
2022-12-02T06:23:41.764Z,22
2022-12-02T06:24:41.751Z,19
2022-12-02T06:25:41.751Z,22
2022-12-02T06:26:41.764Z,23
2022-12-02T06:27:41.765Z,29
2022-12-02T06:28:41.751Z,25
2022-12-02T06:29:41.751Z,22
2022-12-02T06:30:41.764Z,38
2022-12-02T06:31:41.764Z,25
2022-12-02T06:32:41.752Z,32
2022-12-02T06:33:41.765Z,30
2022-12-02T06:34:41.765Z,24
2022-12-02T06:35:41.765Z,23
2022-12-02T06:36:41.752Z,26
2022-12-02T06:37:41.765Z,28
2022-12-02T06:38:41.766Z,30
2022-12-02T06:39:41.765Z,27
2022-12-02T06:40:41.753Z,29
2022-12-02T06:41:41.830Z,25
2022-12-02T06:42:41.767Z,31
2022-12-02T06:43:41.753Z,27
2022-12-02T06:44:47.632Z,35
2022-12-02T06:45:41.766Z,30
2022-12-02T06:46:41.767Z,22
2022-12-02T06:47:41.754Z,31
2022-12-02T06:48:41.754Z,26
2022-12-02T06:49:41.767Z,29
2022-12-02T06:50:41.767Z,33
2022-12-02T06:51:41.754Z,34
2022-12-02T06:52:41.767Z,34
2022-12-02T06:53:41.767Z,36
2022-12-02T06:54:41.767Z,36
2022-12-02T06:55:41.755Z,38
2022-12-02T06:56:41.768Z,42
2022-12-02T06:57:41.768Z,31
2022-12-02T06:58:41.768Z,34
2022-12-02T06:59:41.755Z,34
2022-12-02T07:00:41.768Z,34
2022-12-02T07:01:41.769Z,41
2022-12-02T07:02:41.755Z,49
2022-12-02T07:03:41.756Z,48
2022-12-02T07:04:41.769Z,32
2022-12-02T07:05:41.770Z,43
2022-12-02T07:06:41.756Z,50
2022-12-02T07:07:41.756Z,49
2022-12-02T07:08:41.769Z,41
2022-12-02T07:09:41.769Z,33
2022-12-02T07:10:41.757Z,31
2022-12-02T07:11:41.770Z,32
2022-12-02T07:12:41.770Z,34
2022-12-02T07:13:41.770Z,42
2022-12-02T07:14:41.757Z,37
2022-12-02T07:15:41.770Z,33
2022-12-02T07:16:41.771Z,36
2022-12-02T07:17:41.770Z,33
2022-12-02T07:18:41.758Z,40
2022-12-02T07:19:41.771Z,32
2022-12-02T07:20:41.772Z,36
2022-12-02T07:21:41.758Z,35
2022-12-02T07:22:41.758Z,30
2022-12-02T07:23:41.771Z,33
2022-12-02T07:24:41.772Z,34
2022-12-02T07:25:41.759Z,40
2022-12-02T07:26:41.796Z,40
2022-12-02T07:27:41.772Z,31
2022-12-02T07:28:41.772Z,26
2022-12-02T07:29:41.759Z,31
2022-12-02T07:30:41.772Z,40
2022-12-02T07:31:41.773Z,43
2022-12-02T07:32:41.772Z,33
2022-12-02T07:33:41.760Z,36
2022-12-02T07:34:41.773Z,34
2022-12-02T07:35:41.773Z,28
2022-12-02T07:36:41.773Z,34
2022-12-02T07:37:41.760Z,30
2022-12-02T07:38:41.773Z,27
2022-12-02T07:39:41.774Z,32
2022-12-02T07:40:41.760Z,33
2022-12-02T07:41:41.761Z,38
2022-12-02T07:42:41.774Z,41
2022-12-02T07:43:41.775Z,36
2022-12-02T07:44:45.367Z,36
2022-12-02T07:45:41.761Z,48
2022-12-02T07:46:41.774Z,45
2022-12-02T07:47:41.775Z,42
2022-12-02T07:48:41.762Z,45
2022-12-02T07:49:41.775Z,50
2022-12-02T07:50:41.775Z,47
2022-12-02T07:51:41.775Z,51
2022-12-02T07:52:41.762Z,49
2022-12-02T07:53:41.775Z,46
2022-12-02T07:54:41.776Z,48
2022-12-02T07:55:41.776Z,50
2022-12-02T07:56:41.763Z,49
2022-12-02T07:57:41.776Z,56
2022-12-02T07:58:41.776Z,52
2022-12-02T07:59:41.789Z,57
2022-12-02T08:00:41.763Z,53
2022-12-02T08:01:41.776Z,51
2022-12-02T08:02:41.777Z,50
2022-12-02T08:03:41.764Z,51
2022-12-02T08:04:41.764Z,58
2022-12-02T08:05:41.777Z,49
2022-12-02T08:06:41.841Z,48
2022-12-02T08:07:41.764Z,48
2022-12-02T08:08:41.777Z,46
2022-12-02T08:09:41.778Z,44
2022-12-02T08:10:41.777Z,45
2022-12-02T08:11:41.765Z,41
2022-12-02T08:12:41.778Z,42
2022-12-02T08:13:41.779Z,42
2022-12-02T08:14:41.778Z,50
2022-12-02T08:15:41.765Z,52
2022-12-02T08:16:41.778Z,43
2022-12-02T08:17:41.780Z,47
2022-12-02T08:18:41.766Z,50
2022-12-02T08:19:41.766Z,50
2022-12-02T08:20:41.779Z,50
2022-12-02T08:21:41.780Z,46
2022-12-02T08:22:41.766Z,59
2022-12-02T08:23:41.766Z,61
2022-12-02T08:24:41.780Z,53
2022-12-02T08:25:41.779Z,47
2022-12-02T08:26:41.767Z,50
2022-12-02T08:27:41.780Z,47
2022-12-02T08:28:41.780Z,44
2022-12-02T08:29:41.780Z,45
2022-12-02T08:30:41.767Z,49
2022-12-02T08:31:41.780Z,49
2022-12-02T08:32:41.781Z,46
2022-12-02T08:33:41.781Z,45
2022-12-02T08:34:41.768Z,47
2022-12-02T08:35:41.781Z,45
2022-12-02T08:36:41.782Z,45
2022-12-02T08:37:41.768Z,40
2022-12-02T08:38:41.768Z,46
2022-12-02T08:39:41.782Z,44
2022-12-02T08:40:41.782Z,47
2022-12-02T08:41:41.769Z,43
2022-12-02T08:42:41.769Z,49
2022-12-02T08:43:41.782Z,51
2022-12-02T08:44:41.782Z,51
2022-12-02T08:45:41.769Z,58
2022-12-02T08:46:41.783Z,59
2022-12-02T08:47:41.783Z,54
2022-12-02T08:48:41.783Z,42
2022-12-02T08:49:41.770Z,48
2022-12-02T08:50:41.783Z,41
2022-12-02T08:51:41.784Z,43
2022-12-02T08:52:41.783Z,51
2022-12-02T08:53:41.770Z,49
2022-12-02T08:54:41.783Z,44
2022-12-02T08:55:41.784Z,47
2022-12-02T08:56:41.784Z,45
2022-12-02T08:57:41.771Z,42
2022-12-02T08:58:41.848Z,44
2022-12-02T08:59:41.785Z,42
2022-12-02T09:00:41.771Z,50
2022-12-02T09:01:41.772Z,53
2022-12-02T09:02:41.785Z,54
2022-12-02T09:03:41.785Z,47
2022-12-02T09:04:41.772Z,45
2022-12-02T09:05:41.786Z,38
2022-12-02T09:06:41.785Z,40
2022-12-02T09:07:41.785Z,50
2022-12-02T09:08:41.772Z,43
2022-12-02T09:09:41.785Z,45
2022-12-02T09:10:41.786Z,55
2022-12-02T09:11:41.786Z,49
2022-12-02T09:12:41.773Z,44
2022-12-02T09:13:41.786Z,47
2022-12-02T09:14:41.787Z,47
2022-12-02T09:15:41.786Z,58
2022-12-02T09:16:41.773Z,58
2022-12-02T09:17:41.787Z,52
2022-12-02T09:18:41.788Z,52
2022-12-02T09:19:41.774Z,44
2022-12-02T09:20:41.774Z,53
2022-12-02T09:21:41.787Z,56
2022-12-02T09:22:41.788Z,56
2022-12-02T09:23:41.774Z,58
2022-12-02T09:24:41.788Z,62
2022-12-02T09:25:41.788Z,60
2022-12-02T09:26:41.788Z,48
2022-12-02T09:27:41.775Z,49
2022-12-02T09:28:41.788Z,52
2022-12-02T09:29:41.854Z,53
2022-12-02T09:30:41.788Z,62
2022-12-02T09:32:41.789Z,62
2022-12-02T09:33:41.789Z,58
2022-12-02T09:34:41.789Z,62
2022-12-02T09:35:41.776Z,65
2022-12-02T09:36:41.789Z,63
2022-12-02T09:37:41.790Z,48
2022-12-02T09:38:41.776Z,48
2022-12-02T09:39:41.777Z,60
2022-12-02T09:40:41.790Z,55
2022-12-02T09:41:41.790Z,55
2022-12-02T09:42:41.777Z,63
2022-12-02T09:43:41.791Z,66
2022-12-02T09:44:41.790Z,57
2022-12-02T09:45:41.790Z,67
2022-12-02T09:46:41.777Z,58
2022-12-02T09:47:41.791Z,61
2022-12-02T09:48:41.791Z,52
2022-12-02T09:49:41.791Z,50
2022-12-02T09:50:41.778Z,53
2022-12-02T09:51:41.791Z,55
2022-12-02T09:52:41.792Z,64
2022-12-02T09:53:41.778Z,59
2022-12-02T09:54:41.779Z,54
2022-12-02T09:55:41.792Z,66
2022-12-02T09:56:41.792Z,67
2022-12-02T09:57:41.779Z,67
2022-12-02T09:58:41.779Z,62
2022-12-02T09:59:41.792Z,58
2022-12-02T10:00:41.792Z,66
2022-12-02T10:01:41.780Z,52
2022-12-02T10:02:41.793Z,62
2022-12-02T10:03:41.793Z,66
2022-12-02T10:04:41.793Z,56
2022-12-02T10:05:41.780Z,55
2022-12-02T10:06:41.793Z,58
2022-12-02T10:07:41.794Z,60
2022-12-02T10:08:41.793Z,59
2022-12-02T10:09:41.781Z,64
2022-12-02T10:10:41.794Z,63
2022-12-02T10:11:41.794Z,64
2022-12-02T10:12:41.781Z,68
2022-12-02T10:13:41.781Z,76
2022-12-02T10:14:41.794Z,63
2022-12-02T10:15:41.795Z,66
2022-12-02T10:16:41.781Z,61
2022-12-02T10:17:41.859Z,56
2022-12-02T10:18:41.795Z,67
2022-12-02T10:19:41.795Z,57
2022-12-02T10:20:41.782Z,70
2022-12-02T10:21:41.795Z,65
2022-12-02T10:22:41.796Z,60
2022-12-02T10:23:41.795Z,66
2022-12-02T10:24:41.783Z,66
2022-12-02T10:25:41.796Z,66
2022-12-02T10:26:41.796Z,64
2022-12-02T10:27:41.796Z,63
2022-12-02T10:28:41.783Z,68
2022-12-02T10:29:41.861Z,77
2022-12-02T10:30:41.797Z,70
2022-12-02T10:31:41.783Z,70
2022-12-02T10:32:41.784Z,70
2022-12-02T10:33:41.797Z,66
2022-12-02T10:34:41.797Z,70
2022-12-02T10:35:41.784Z,78
2022-12-02T10:36:41.798Z,68
2022-12-02T10:37:41.797Z,75
2022-12-02T10:38:41.797Z,82
2022-12-02T10:39:41.785Z,81
2022-12-02T10:40:41.798Z,72
2022-12-02T10:41:41.798Z,81
2022-12-02T10:42:41.798Z,96
2022-12-02T10:43:41.785Z,79
2022-12-02T10:44:41.798Z,90
2022-12-02T10:45:41.799Z,89
2022-12-02T10:46:41.799Z,77
2022-12-02T10:47:41.786Z,85
2022-12-02T10:48:41.823Z,87
2022-12-02T10:49:41.800Z,90
2022-12-02T10:50:41.786Z,93
2022-12-02T10:51:41.786Z,98
2022-12-02T10:52:41.800Z,91
2022-12-02T10:53:41.800Z,83
2022-12-02T10:54:41.787Z,86
2022-12-02T10:55:41.800Z,95
2022-12-02T10:56:41.800Z,90
2022-12-02T10:57:41.800Z,86
2022-12-02T10:58:41.787Z,91
2022-12-02T10:59:41.801Z,77
2022-12-02T11:00:41.801Z,84
2022-12-02T11:01:41.801Z,76
2022-12-02T11:02:41.788Z,80
2022-12-02T11:03:41.801Z,80
2022-12-02T11:04:41.802Z,79
2022-12-02T11:05:41.801Z,78
2022-12-02T11:06:41.788Z,79
2022-12-02T11:07:41.801Z,64
2022-12-02T11:08:41.802Z,76
2022-12-02T11:09:41.789Z,74
2022-12-02T11:10:41.789Z,82
2022-12-02T11:11:41.802Z,76
2022-12-02T11:12:41.803Z,89
2022-12-02T11:13:41.789Z,88
2022-12-02T11:14:41.802Z,89
2022-12-02T11:15:41.803Z,100
2022-12-02T11:16:41.803Z,99
2022-12-02T11:17:41.790Z,96
2022-12-02T11:18:41.803Z,81
2022-12-02T11:19:41.804Z,84
2022-12-02T11:20:41.803Z,91
2022-12-02T11:21:41.790Z,85
2022-12-02T11:22:41.804Z,79
2022-12-02T11:23:41.804Z,86
2022-12-02T11:24:41.791Z,85
2022-12-02T11:25:41.791Z,96
2022-12-02T11:26:41.804Z,85
2022-12-02T11:27:41.805Z,88
2022-12-02T11:28:41.791Z,86
2022-12-02T11:29:41.791Z,80
2022-12-02T11:30:41.805Z,94
2022-12-02T11:31:41.805Z,86
2022-12-02T11:32:41.792Z,87
2022-12-02T11:33:41.805Z,86
2022-12-02T11:34:41.805Z,84
2022-12-02T11:35:41.805Z,93
2022-12-02T11:36:41.792Z,82
2022-12-02T11:37:41.806Z,80
2022-12-02T11:38:41.806Z,92
2022-12-02T11:39:41.806Z,104
2022-12-02T11:40:41.793Z,105
2022-12-02T11:41:41.806Z,97
2022-12-02T11:42:41.807Z,106
2022-12-02T11:43:41.793Z,100
2022-12-02T11:44:41.794Z,106
2022-12-02T11:45:41.807Z,113
2022-12-02T11:46:41.807Z,105
2022-12-02T11:47:41.794Z,100
2022-12-02T11:48:41.794Z,86
2022-12-02T11:49:41.807Z,82
2022-12-02T11:50:41.807Z,91
2022-12-02T11:51:41.795Z,99
2022-12-02T11:52:41.808Z,90
2022-12-02T11:53:41.808Z,87
2022-12-02T11:54:41.808Z,79
2022-12-02T11:55:41.795Z,81
2022-12-02T11:56:41.808Z,82
2022-12-02T11:57:41.809Z,82
2022-12-02T11:58:41.809Z,91
2022-12-02T11:59:41.796Z,101
2022-12-02T12:00:41.809Z,117
2022-12-02T12:01:41.810Z,96
2022-12-02T12:02:41.796Z,86
2022-12-02T12:03:41.796Z,89
2022-12-02T12:04:41.810Z,84
2022-12-02T12:05:41.810Z,78
2022-12-02T12:06:41.797Z,86
2022-12-02T12:07:41.875Z,106
2022-12-02T12:08:41.810Z,106
2022-12-02T12:09:41.810Z,95
2022-12-02T12:10:41.797Z,91
2022-12-02T12:11:41.810Z,92
2022-12-02T12:12:41.811Z,82
2022-12-02T12:13:41.811Z,84
2022-12-02T12:14:41.798Z,85
2022-12-02T12:15:41.811Z,97
2022-12-02T12:16:41.812Z,95
2022-12-02T12:17:41.811Z,83
2022-12-02T12:18:41.798Z,80
2022-12-02T12:19:41.836Z,80
2022-12-02T12:20:41.812Z,93
2022-12-02T12:21:41.799Z,84
2022-12-02T12:22:41.799Z,89
2022-12-02T12:23:41.812Z,104
2022-12-02T12:24:41.813Z,89
2022-12-02T12:25:41.799Z,86
2022-12-02T12:26:41.813Z,84
2022-12-02T12:27:41.813Z,71
2022-12-02T12:28:41.813Z,83
2022-12-02T12:29:41.800Z,85
2022-12-02T12:30:41.813Z,93
2022-12-02T12:31:41.813Z,80
2022-12-02T12:32:41.813Z,84
2022-12-02T12:33:41.801Z,75
2022-12-02T12:34:41.814Z,79
2022-12-02T12:35:41.814Z,79
2022-12-02T12:36:41.814Z,80
2022-12-02T12:37:41.801Z,75
2022-12-02T12:38:41.863Z,74
2022-12-02T12:39:41.815Z,76
2022-12-02T12:40:41.801Z,102
2022-12-02T12:41:41.802Z,92
2022-12-02T12:42:41.815Z,97
2022-12-02T12:43:41.815Z,98
2022-12-02T12:44:41.802Z,90
2022-12-02T12:45:41.815Z,84
2022-12-02T12:46:41.816Z,82
2022-12-02T12:47:41.815Z,89
2022-12-02T12:48:41.803Z,91
2022-12-02T12:49:41.816Z,98
2022-12-02T12:50:41.816Z,97
2022-12-02T12:51:41.816Z,95
2022-12-02T12:52:41.803Z,92
2022-12-02T12:53:41.816Z,105
2022-12-02T12:54:41.817Z,103
2022-12-02T12:55:41.817Z,106
2022-12-02T12:56:41.804Z,106
2022-12-02T12:57:41.817Z,121
2022-12-02T12:58:41.818Z,123
2022-12-02T12:59:41.804Z,112
2022-12-02T13:00:41.804Z,131
2022-12-02T13:01:41.818Z,117
2022-12-02T13:03:41.805Z,138
2022-12-02T13:04:41.818Z,122
2022-12-02T13:05:41.818Z,120
2022-12-02T13:06:41.818Z,122
2022-12-02T13:07:41.805Z,115
2022-12-02T13:08:41.818Z,127
2022-12-02T13:10:51.077Z,124
2022-12-02T13:11:41.806Z,136
2022-12-02T13:12:41.819Z,125
2022-12-02T13:13:41.819Z,133
2022-12-02T13:14:41.819Z,137
2022-12-02T13:15:41.806Z,157
2022-12-02T13:16:41.820Z,144
2022-12-02T13:17:41.820Z,151
2022-12-02T13:18:41.820Z,147
2022-12-02T13:19:41.807Z,152
2022-12-02T13:20:41.820Z,144
2022-12-02T13:21:41.821Z,150
2022-12-02T13:22:41.820Z,160
2022-12-02T13:23:41.807Z,160
2022-12-02T13:24:41.821Z,155
2022-12-02T13:25:41.821Z,161
2022-12-02T13:26:41.821Z,154
2022-12-02T13:27:41.808Z,158
2022-12-02T13:28:41.821Z,172
2022-12-02T13:29:41.822Z,164
2022-12-02T13:30:41.808Z,185
2022-12-02T13:31:41.809Z,171
2022-12-02T13:32:41.822Z,151
2022-12-02T13:33:41.822Z,153
2022-12-02T13:34:41.809Z,159
2022-12-02T13:35:41.822Z,157
2022-12-02T13:36:41.822Z,168
2022-12-02T13:37:41.822Z,153
2022-12-02T13:38:41.810Z,158
2022-12-02T13:39:41.823Z,164
2022-12-02T13:40:41.823Z,160
2022-12-02T13:41:41.823Z,150
2022-12-02T13:42:41.810Z,148
2022-12-02T13:43:41.824Z,160
2022-12-02T13:44:41.824Z,167
2022-12-02T13:45:41.810Z,179
2022-12-02T13:46:41.811Z,168
2022-12-02T13:47:41.824Z,171
2022-12-02T13:48:41.824Z,177
2022-12-02T13:49:41.811Z,174
2022-12-02T13:50:41.811Z,153
2022-12-02T13:51:41.824Z,162
2022-12-02T13:52:41.824Z,174
2022-12-02T13:53:41.812Z,171
2022-12-02T13:54:41.825Z,170
2022-12-02T13:55:41.825Z,154
2022-12-02T13:56:41.825Z,153
2022-12-02T13:57:41.825Z,165
2022-12-02T13:58:41.825Z,175
2022-12-02T13:59:41.826Z,156
2022-12-02T14:00:41.826Z,174
2022-12-02T14:01:41.813Z,159
2022-12-02T14:02:41.826Z,148
2022-12-02T14:03:41.827Z,147
2022-12-02T14:04:41.813Z,152
2022-12-02T14:05:41.813Z,152
2022-12-02T14:06:41.827Z,138
2022-12-02T14:07:41.828Z,141
2022-12-02T14:08:41.814Z,156
2022-12-02T14:09:41.814Z,171
2022-12-02T14:10:41.827Z,169
2022-12-02T14:11:41.827Z,172
2022-12-02T14:12:41.814Z,171
2022-12-02T14:13:41.828Z,175
2022-12-02T14:14:41.828Z,178
2022-12-02T14:15:41.828Z,208
2022-12-02T14:16:41.828Z,183
2022-12-02T14:17:41.828Z,175
2022-12-02T14:18:41.829Z,182
2022-12-02T14:19:41.828Z,176
2022-12-02T14:20:41.815Z,178